createdAt,value
2022-11-10T00:01:19.712Z,12.10
2022-11-10T00:04:06.838Z,13.77
2022-11-10T00:06:53.786Z,15.45
2022-11-10T00:09:41.311Z,14.50
2022-11-10T00:12:29.481Z,15.10
2022-11-10T00:15:35.309Z,13.57
2022-11-10T00:18:22.509Z,13.70
2022-11-10T00:21:12.137Z,13.50
2022-11-10T00:23:59.176Z,14.23
2022-11-10T00:26:46.154Z,16.05
2022-11-10T00:29:33.899Z,15.40
2022-11-10T00:32:22.262Z,18.55
2022-11-10T00:35:10.107Z,11.82
2022-11-10T00:37:57.125Z,19.95
2022-11-10T00:40:43.991Z,17.73
2022-11-10T00:43:32.541Z,16.08
2022-11-10T00:46:19.982Z,14.20
2022-11-10T00:49:08.541Z,15.25
2022-11-10T00:51:55.614Z,14.50
2022-11-10T00:54:42.620Z,16.58
2022-11-10T00:57:31.526Z,16.23
2022-11-10T01:00:19.109Z,19.38
2022-11-10T01:03:05.840Z,16.48
2022-11-10T01:05:54.421Z,18.17
2022-11-10T01:08:42.738Z,15.68
2022-11-10T01:11:30.225Z,16.33
2022-11-10T01:14:18.185Z,17.15
2022-11-10T01:17:05.212Z,17.95
2022-11-10T01:19:52.032Z,15.23
2022-11-10T01:22:40.726Z,15.52
2022-11-10T01:25:27.882Z,17.05
2022-11-10T01:28:14.623Z,16.92
2022-11-10T01:31:02.136Z,16.02
2022-11-10T01:33:48.734Z,15.70
2022-11-10T01:36:35.588Z,14.43
2022-11-10T01:39:23.959Z,15.82
2022-11-10T01:42:11.219Z,15.70
2022-11-10T01:45:38.391Z,17.65
2022-11-10T01:48:33.196Z,16.25
2022-11-10T01:51:24.249Z,16.70
2022-11-10T01:54:14.745Z,15.73
2022-11-10T01:57:06.543Z,18.23
2022-11-10T02:02:50.871Z,17.33
2022-11-10T02:05:38.078Z,17.73
2022-11-10T02:08:26.756Z,16.80
2022-11-10T02:11:14.279Z,17.45
2022-11-10T02:14:02.913Z,19.42
2022-11-10T02:16:50.127Z,19.33
2022-11-10T02:19:42.909Z,19.00
2022-11-10T02:22:31.676Z,17.27
2022-11-10T02:25:22.314Z,17.05
2022-11-10T02:28:09.512Z,17.70
2022-11-10T02:30:56.700Z,16.77
2022-11-10T02:33:43.707Z,19.00
2022-11-10T02:36:30.749Z,17.15
2022-11-10T02:39:19.300Z,15.98
2022-11-10T02:42:10.463Z,17.00
2022-11-10T02:44:59.421Z,17.77
2022-11-10T02:47:46.580Z,21.98
2022-11-10T02:50:33.169Z,16.33
2022-11-10T02:53:20.601Z,17.35
2022-11-10T02:56:09.488Z,16.50
2022-11-10T02:58:56.610Z,15.05
2022-11-10T03:01:43.503Z,17.40
2022-11-10T03:04:30.793Z,19.90
2022-11-10T03:07:17.546Z,14.48
2022-11-10T03:10:04.889Z,16.60
2022-11-10T03:12:56.722Z,15.63
2022-11-10T03:15:43.615Z,16.60
2022-11-10T03:18:30.591Z,15.93
2022-11-10T03:21:17.303Z,17.88
2022-11-10T03:24:04.278Z,15.52
2022-11-10T03:26:50.992Z,16.00
2022-11-10T03:29:39.270Z,17.73
2022-11-10T03:32:26.260Z,17.70
2022-11-10T03:35:13.482Z,17.02
2022-11-10T03:38:00.430Z,17.23
2022-11-10T03:41:17.045Z,19.15
2022-11-10T03:43:54.027Z,19.85
2022-11-10T03:46:43.619Z,20.33
2022-11-10T03:49:30.678Z,15.95
2022-11-10T03:52:17.935Z,19.38
2022-11-10T03:55:05.536Z,23.25
2022-11-10T03:57:52.636Z,18.75
2022-11-10T04:00:40.005Z,30.60
2022-11-10T04:03:28.263Z,19.65
2022-11-10T04:06:32.849Z,27.88
2022-11-10T04:09:19.615Z,19.20
2022-11-10T04:12:25.229Z,18.98
2022-11-10T04:15:31.139Z,17.20
2022-11-10T04:18:25.792Z,19.75
2022-11-10T04:21:14.436Z,17.77
2022-11-10T04:24:01.909Z,18.40
2022-11-10T04:26:49.459Z,19.67
2022-11-10T04:29:36.715Z,20.20
2022-11-10T04:32:23.405Z,19.58
2022-11-10T04:35:10.710Z,17.67
2022-11-10T04:37:59.003Z,20.70
2022-11-10T04:40:46.307Z,20.33
2022-11-10T04:43:33.098Z,18.35
2022-11-10T04:46:26.756Z,20.33
2022-11-10T04:49:14.048Z,18.92
2022-11-10T04:52:01.297Z,18.60
2022-11-10T04:54:49.397Z,20.88
2022-11-10T04:57:36.582Z,20.83
2022-11-10T05:00:24.069Z,19.00
2022-11-10T05:03:13.075Z,18.23
2022-11-10T05:06:00.090Z,20.67
2022-11-10T05:08:51.401Z,18.23
2022-11-10T05:11:40.229Z,19.05
2022-11-10T05:14:27.109Z,19.10
2022-11-10T05:17:13.991Z,20.95
2022-11-10T05:20:00.829Z,19.23
2022-11-10T05:23:08.509Z,21.58
2022-11-10T05:25:55.451Z,18.27
2022-11-10T05:28:45.236Z,20.60
2022-11-10T05:31:32.688Z,19.02
2022-11-10T05:34:19.480Z,18.55
2022-11-10T05:37:06.343Z,19.38
2022-11-10T05:39:53.362Z,18.85
2022-11-10T05:42:44.502Z,20.70
2022-11-10T05:45:32.640Z,20.15
2022-11-10T05:48:20.068Z,17.42
2022-11-10T05:51:07.200Z,16.48
2022-11-10T05:53:54.298Z,23.33
2022-11-10T05:56:42.442Z,17.52
2022-11-10T05:59:29.668Z,23.98
2022-11-10T06:02:18.319Z,21.58
2022-11-10T06:05:06.155Z,24.40
2022-11-10T06:07:53.150Z,22.92
2022-11-10T06:10:40.733Z,18.52
2022-11-10T06:13:27.825Z,18.45
2022-11-10T06:16:14.549Z,24.70
2022-11-10T06:19:03.038Z,18.38
2022-11-10T06:21:52.854Z,22.10
2022-11-10T06:24:43.774Z,20.15
2022-11-10T06:27:31.546Z,22.65
2022-11-10T06:30:18.744Z,22.55
2022-11-10T06:33:05.844Z,18.70
2022-11-10T06:35:54.405Z,21.35
2022-11-10T06:38:41.224Z,21.70
2022-11-10T06:41:28.134Z,20.63
2022-11-10T06:44:14.996Z,20.85
2022-11-10T06:47:02.047Z,17.33
2022-11-10T06:49:48.820Z,20.08
2022-11-10T06:52:37.628Z,20.92
2022-11-10T06:55:25.095Z,17.15
2022-11-10T06:58:12.252Z,21.67
2022-11-10T07:01:01.586Z,17.27
2022-11-10T07:04:13.166Z,21.65
2022-11-10T07:06:55.080Z,19.30
2022-11-10T07:09:43.415Z,18.05
2022-11-10T07:12:31.784Z,18.80
2022-11-10T07:15:18.911Z,20.90
2022-11-10T07:18:06.286Z,21.23
2022-11-10T07:20:53.561Z,17.95
2022-11-10T07:23:42.146Z,24.23
2022-11-10T07:26:30.432Z,17.40
2022-11-10T07:29:17.407Z,15.63
2022-11-10T07:32:04.861Z,17.73
2022-11-10T07:34:51.580Z,20.25
2022-11-10T07:37:38.853Z,16.38
2022-11-10T07:40:25.955Z,24.23
2022-11-10T07:43:14.441Z,20.70
2022-11-10T07:46:01.625Z,24.25
2022-11-10T07:48:48.736Z,17.73
2022-11-10T07:51:35.806Z,20.05
2022-11-10T07:54:22.674Z,20.23
2022-11-10T07:57:09.491Z,17.67
2022-11-10T07:59:58.280Z,22.55
2022-11-10T08:02:45.465Z,19.83
2022-11-10T08:05:34.494Z,17.52
2022-11-10T08:08:21.581Z,19.27
2022-11-10T08:11:08.659Z,18.83
2022-11-10T08:13:55.534Z,20.50
2022-11-10T08:16:44.034Z,16.65
2022-11-10T08:19:31.210Z,18.55
2022-11-10T08:22:18.052Z,19.77
2022-11-10T08:25:05.500Z,21.65
2022-11-10T08:27:58.756Z,23.23
2022-11-10T08:30:47.204Z,21.88
2022-11-10T08:33:35.319Z,21.55
2022-11-10T08:36:22.645Z,21.30
2022-11-10T08:39:38.226Z,18.67
2022-11-10T08:42:25.780Z,26.15
2022-11-10T08:45:12.608Z,25.92
2022-11-10T08:48:00.549Z,28.30
2022-11-10T08:50:50.275Z,19.58
2022-11-10T08:53:37.225Z,26.83
2022-11-10T08:56:24.393Z,22.88
2022-11-10T08:59:11.241Z,21.98
2022-11-10T09:01:59.306Z,21.55
2022-11-10T09:04:46.876Z,22.42
2022-11-10T09:07:43.272Z,19.95
2022-11-10T09:10:30.558Z,26.17
2022-11-10T09:13:20.078Z,27.13
2022-11-10T09:16:09.965Z,20.00
2022-11-10T09:18:57.104Z,22.17
2022-11-10T09:21:44.132Z,22.75
2022-11-10T09:24:32.695Z,20.48
2022-11-10T09:27:20.048Z,21.45
2022-11-10T09:30:10.634Z,21.60
2022-11-10T09:33:04.132Z,26.73
2022-11-10T09:35:51.503Z,20.23
2022-11-10T09:38:39.351Z,23.35
2022-11-10T09:41:29.996Z,29.40
2022-11-10T09:44:23.231Z,53.72
2022-11-10T09:47:18.929Z,21.50
2022-11-10T09:50:20.449Z,26.67
2022-11-10T09:53:13.282Z,22.10
2022-11-10T09:56:04.032Z,24.58
2022-11-10T09:58:52.830Z,26.58
2022-11-10T10:01:47.004Z,26.60
2022-11-10T10:04:59.942Z,27.83
2022-11-10T10:07:53.865Z,23.55
2022-11-10T10:10:45.751Z,22.50
2022-11-10T10:13:56.000Z,25.63
2022-11-10T10:16:55.410Z,25.30
2022-11-10T10:19:51.208Z,23.75
2022-11-10T10:22:53.836Z,20.92
2022-11-10T10:25:42.893Z,23.48
2022-11-10T10:28:38.109Z,30.30
2022-11-10T10:31:26.955Z,23.58
2022-11-10T10:34:17.538Z,26.15
2022-11-10T10:37:04.693Z,25.33
2022-11-10T10:39:54.416Z,22.48
2022-11-10T10:42:44.176Z,24.58
2022-11-10T10:45:31.178Z,23.42
2022-11-10T10:48:30.180Z,24.60
2022-11-10T10:51:32.256Z,24.27
2022-11-10T10:54:30.169Z,26.85
2022-11-10T10:57:23.281Z,28.83
2022-11-10T11:00:22.425Z,23.15
2022-11-10T11:03:20.382Z,27.13
2022-11-10T11:06:19.441Z,26.67
2022-11-10T11:09:10.930Z,24.42
2022-11-10T11:12:03.809Z,24.25
2022-11-10T11:14:51.180Z,24.27
2022-11-10T11:17:38.085Z,26.45
2022-11-10T11:20:34.563Z,23.85
2022-11-10T11:23:41.250Z,22.10
2022-11-10T11:26:39.018Z,26.42
2022-11-10T11:29:50.892Z,30.45
2022-11-10T11:32:59.659Z,23.70
2022-11-10T11:35:55.121Z,25.55
2022-11-10T11:38:54.364Z,25.58
2022-11-10T11:41:54.476Z,23.08
2022-11-10T11:44:58.843Z,26.23
2022-11-10T11:48:11.347Z,26.23
2022-11-10T11:51:03.007Z,24.85
2022-11-10T11:54:09.596Z,26.23
2022-11-10T11:57:11.403Z,26.13
2022-11-10T12:00:07.184Z,26.42
2022-11-10T12:03:32.812Z,26.20
2022-11-10T12:06:41.718Z,23.50
2022-11-10T12:09:36.536Z,27.13
2022-11-10T12:12:59.038Z,22.42
2022-11-10T12:15:55.320Z,23.38
2022-11-10T12:18:49.935Z,22.85
2022-11-10T12:21:45.409Z,22.30
2022-11-10T12:24:45.454Z,22.13
2022-11-10T12:27:38.458Z,24.45
2022-11-10T12:30:25.103Z,23.95
2022-11-10T12:33:19.177Z,25.27
2022-11-10T12:36:09.794Z,26.63
2022-11-10T12:39:02.178Z,24.98
2022-11-10T12:41:54.705Z,25.42
2022-11-10T12:44:55.544Z,24.90
2022-11-10T12:47:45.156Z,27.33
2022-11-10T12:50:42.626Z,27.02
2022-11-10T12:53:31.952Z,24.67
2022-11-10T12:56:23.709Z,26.20
2022-11-10T12:59:27.547Z,29.58
2022-11-10T13:02:33.171Z,24.40
2022-11-10T13:05:33.453Z,28.23
2022-11-10T13:08:31.805Z,27.52
2022-11-10T13:11:30.140Z,25.90
2022-11-10T13:14:26.346Z,24.42
2022-11-10T13:17:46.858Z,25.52
2022-11-10T13:20:51.598Z,28.20
2022-11-10T13:24:22.690Z,23.23
2022-11-10T13:27:12.955Z,25.58
2022-11-10T13:30:00.656Z,27.20
2022-11-10T13:32:47.852Z,26.92
2022-11-10T13:35:55.549Z,25.60
2022-11-10T13:38:44.474Z,25.13
2022-11-10T13:41:34.785Z,30.17
2022-11-10T13:44:24.783Z,26.58
2022-11-10T13:47:48.104Z,26.95
2022-11-10T13:50:48.273Z,27.88
2022-11-10T13:53:47.725Z,24.92
2022-11-10T13:56:47.054Z,38.53
2022-11-10T13:59:44.697Z,27.00
2022-11-10T14:02:55.620Z,25.10
2022-11-10T14:06:05.864Z,26.83
2022-11-10T14:08:57.535Z,26.23
2022-11-10T14:11:49.881Z,27.67
2022-11-10T14:14:49.274Z,26.20
2022-11-10T14:17:42.202Z,24.63
2022-11-10T14:20:37.056Z,24.17
2022-11-10T14:23:30.323Z,23.98
2022-11-10T14:26:25.881Z,28.83
2022-11-10T14:29:27.972Z,36.15
2022-11-10T14:32:18.932Z,30.88
2022-11-10T14:35:06.891Z,25.30
2022-11-10T14:37:58.446Z,29.08
2022-11-10T14:40:47.563Z,28.27
2022-11-10T14:43:38.179Z,31.00
2022-11-10T14:46:26.164Z,26.02
2022-11-10T14:49:13.290Z,24.55
2022-11-10T14:52:01.558Z,29.55
2022-11-10T14:54:52.745Z,31.38
2022-11-10T14:57:45.833Z,33.08
2022-11-10T15:00:37.104Z,35.50
2022-11-10T15:03:35.016Z,27.90
2022-11-10T15:06:22.868Z,39.72
2022-11-10T15:09:18.225Z,31.02
2022-11-10T15:12:20.002Z,28.17
2022-11-10T15:15:20.998Z,26.55
2022-11-10T15:18:25.738Z,32.13
2022-11-10T15:21:14.435Z,26.92
2022-11-10T15:24:06.017Z,32.95
2022-11-10T15:26:53.296Z,28.52
2022-11-10T15:29:40.358Z,30.33
2022-11-10T15:32:47.333Z,26.33
2022-11-10T15:35:35.689Z,27.40
2022-11-10T15:38:29.759Z,29.17
2022-11-10T15:41:27.461Z,30.05
2022-11-10T15:44:20.444Z,29.90
2022-11-10T15:47:07.999Z,30.35
2022-11-10T15:49:55.274Z,29.25
2022-11-10T15:52:43.891Z,31.77
2022-11-10T15:55:34.462Z,30.30
2022-11-10T15:58:23.324Z,30.35
2022-11-10T16:01:13.340Z,30.15
2022-11-10T16:04:00.453Z,32.22
2022-11-10T16:06:48.229Z,31.25
2022-11-10T16:09:36.739Z,34.35
2022-11-10T16:12:24.665Z,29.33
2022-11-10T16:15:19.641Z,30.05
2022-11-10T16:18:11.443Z,33.58
2022-11-10T16:20:58.984Z,30.45
2022-11-10T16:23:46.089Z,31.35
2022-11-10T16:26:35.541Z,30.88
2022-11-10T16:29:22.820Z,33.75
2022-11-10T16:32:10.972Z,30.17
2022-11-10T16:34:58.116Z,31.55
2022-11-10T16:37:45.267Z,34.42
2022-11-10T16:40:32.248Z,33.42
2022-11-10T16:43:21.206Z,31.75
2022-11-10T16:46:20.664Z,35.47
2022-11-10T16:49:16.542Z,33.97
2022-11-10T16:52:09.296Z,32.03
2022-11-10T16:54:56.699Z,34.83
2022-11-10T16:57:43.954Z,31.80
2022-11-10T17:00:32.731Z,31.05
2022-11-10T17:03:27.374Z,34.70
2022-11-10T17:06:15.663Z,31.20
2022-11-10T17:09:10.575Z,33.85
2022-11-10T17:11:57.417Z,36.08
2022-11-10T17:14:44.303Z,33.38
2022-11-10T17:17:36.672Z,33.78
2022-11-10T17:20:27.337Z,36.33
2022-11-10T17:23:17.632Z,39.25
2022-11-10T17:26:05.170Z,34.78
2022-11-10T17:28:52.190Z,31.40
2022-11-10T17:31:40.781Z,30.88
2022-11-10T17:34:31.776Z,32.78
2022-11-10T17:37:20.365Z,33.70
2022-11-10T17:40:19.306Z,32.30
2022-11-10T17:43:07.302Z,28.05
2022-11-10T17:45:54.490Z,32.25
2022-11-10T17:48:41.795Z,29.08
2022-11-10T17:51:30.391Z,32.45
2022-11-10T17:54:17.451Z,29.27
2022-11-10T17:57:04.600Z,31.02
2022-11-10T17:59:51.896Z,46.40
2022-11-10T18:02:38.724Z,37.17
2022-11-10T18:05:25.713Z,28.55
2022-11-10T18:08:15.951Z,29.27
2022-11-10T18:11:02.967Z,27.00
2022-11-10T18:13:51.503Z,28.30
2022-11-10T18:16:38.954Z,28.45
2022-11-10T18:19:26.072Z,25.08
2022-11-10T18:22:13.575Z,29.27
2022-11-10T18:25:01.759Z,25.63
2022-11-10T18:27:48.961Z,27.58
2022-11-10T18:30:36.511Z,26.52
2022-11-10T18:33:23.592Z,29.10
2022-11-10T18:36:12.709Z,23.45
2022-11-10T18:39:02.522Z,26.75
2022-11-10T18:41:50.928Z,27.77
2022-11-10T18:44:38.201Z,27.00
2022-11-10T18:47:25.375Z,24.60
2022-11-10T18:50:13.490Z,28.40
2022-11-10T18:53:02.305Z,33.95
2022-11-10T18:55:55.387Z,29.15
2022-11-10T18:58:44.076Z,29.42
2022-11-10T19:01:31.298Z,27.45
2022-11-10T19:04:18.133Z,29.60
2022-11-10T19:07:05.393Z,27.73
2022-11-10T19:09:53.028Z,26.75
2022-11-10T19:12:41.376Z,28.17
2022-11-10T19:15:30.007Z,28.48
2022-11-10T19:18:18.030Z,27.88
2022-11-10T19:21:09.377Z,29.10
2022-11-10T19:23:57.805Z,27.73
2022-11-10T19:26:44.833Z,31.08
2022-11-10T19:29:31.603Z,28.23
2022-11-10T19:32:24.701Z,35.55
2022-11-10T19:35:17.996Z,30.13
2022-11-10T19:38:05.700Z,26.88
2022-11-10T19:40:52.806Z,33.35
2022-11-10T19:43:43.609Z,29.35
2022-11-10T19:46:36.829Z,34.75
2022-11-10T19:49:25.305Z,31.75
2022-11-10T19:52:11.897Z,38.17
2022-11-10T19:54:59.004Z,31.08
2022-11-10T19:57:45.961Z,37.25
2022-11-10T20:00:33.056Z,30.40
2022-11-10T20:03:19.987Z,34.67
2022-11-10T20:06:10.126Z,32.40
2022-11-10T20:08:57.707Z,31.20
2022-11-10T20:11:46.322Z,33.95
2022-11-10T20:14:33.502Z,44.47
2022-11-10T20:17:21.196Z,34.45
2022-11-10T20:20:09.127Z,33.83
2022-11-10T20:23:02.142Z,36.08
2022-11-10T20:25:49.122Z,36.58
2022-11-10T20:28:38.245Z,38.92
2022-11-10T20:31:27.207Z,33.40
2022-11-10T20:34:14.088Z,36.83
2022-11-10T20:37:01.294Z,31.80
2022-11-10T20:39:50.357Z,36.08
2022-11-10T20:42:42.498Z,35.80
2022-11-10T20:45:30.515Z,37.72
2022-11-10T20:48:17.455Z,36.13
2022-11-10T20:51:10.685Z,34.28
2022-11-10T20:53:59.317Z,33.95
2022-11-10T20:56:47.800Z,33.75
2022-11-10T20:59:34.857Z,34.53
2022-11-10T21:02:22.012Z,37.67
2022-11-10T21:05:09.552Z,36.63
2022-11-10T21:07:56.314Z,33.83
2022-11-10T21:10:43.006Z,34.72
2022-11-10T21:13:30.367Z,36.35
2022-11-10T21:16:19.599Z,36.17
2022-11-10T21:19:06.616Z,37.38
2022-11-10T21:21:53.975Z,36.00
2022-11-10T21:24:40.834Z,37.85
2022-11-10T21:27:28.388Z,37.47
2022-11-10T21:30:23.072Z,34.60
2022-11-10T21:33:10.761Z,37.90
2022-11-10T21:35:57.791Z,37.72
2022-11-10T21:38:47.372Z,33.85
2022-11-10T21:41:34.399Z,37.67
2022-11-10T21:44:21.494Z,37.15
2022-11-10T21:47:10.033Z,32.20
2022-11-10T21:49:58.640Z,33.63
2022-11-10T21:52:45.780Z,31.60
2022-11-10T21:55:33.014Z,34.08
2022-11-10T21:58:19.846Z,31.95
2022-11-10T22:01:11.212Z,30.52
2022-11-10T22:04:00.778Z,33.10
2022-11-10T22:07:07.554Z,33.78
2022-11-10T22:10:13.947Z,34.10
2022-11-10T22:13:19.106Z,34.10
2022-11-10T22:16:39.882Z,38.17
2022-11-10T22:19:30.353Z,34.10
2022-11-10T22:22:17.492Z,36.00
2022-11-10T22:25:07.374Z,31.25
2022-11-10T22:27:54.468Z,33.83
2022-11-10T22:30:42.326Z,30.38
2022-11-10T22:33:29.220Z,31.40
2022-11-10T22:36:21.250Z,32.80
2022-11-10T22:39:08.694Z,32.28
2022-11-10T22:42:13.525Z,34.08
2022-11-10T22:45:00.634Z,30.25
2022-11-10T22:48:04.830Z,30.10
2022-11-10T22:50:55.557Z,31.50
2022-11-10T22:53:43.922Z,33.63
2022-11-10T22:56:32.848Z,35.53
2022-11-10T22:59:20.568Z,31.80
2022-11-10T23:02:08.920Z,31.35
2022-11-10T23:04:55.941Z,33.88
2022-11-10T23:07:43.349Z,30.02
2022-11-10T23:10:32.570Z,30.80
2022-11-10T23:13:19.991Z,32.63
2022-11-10T23:16:09.474Z,34.38
2022-11-10T23:18:57.705Z,34.05
2022-11-10T23:21:45.535Z,36.72
2022-11-10T23:24:32.916Z,30.35
2022-11-10T23:27:21.506Z,31.95
2022-11-10T23:30:11.922Z,34.13
2022-11-10T23:32:59.071Z,31.50
2022-11-10T23:35:45.857Z,32.33
2022-11-10T23:38:33.938Z,35.08
2022-11-10T23:41:23.623Z,32.47
2022-11-10T23:44:12.128Z,33.78
2022-11-10T23:46:59.992Z,32.55
2022-11-10T23:49:46.759Z,31.33
2022-11-10T23:52:34.179Z,32.10
2022-11-10T23:55:21.197Z,39.03
2022-11-10T23:58:08.347Z,36.08
